sensor_id;sensor_type;location;lat;lon;timestamp;pressure;altitude;pressure_sealevel;temperature;humidity
62800;BME280;48842;51.046;13.796;2023-06-26T00:00:42;100414.38;;;22.85;nan
62800;BME280;48842;51.046;13.796;2023-06-26T00:03:07;100409.13;;;22.83;nan
62800;BME280;48842;51.046;13.796;2023-06-26T00:05:33;100400.38;;;22.80;nan
62800;BME280;48842;51.046;13.796;2023-06-26T00:07:59;100400.47;;;22.78;nan
62800;BME280;48842;51.046;13.796;2023-06-26T00:10:26;100399.66;;;22.76;nan
62800;BME280;48842;51.046;13.796;2023-06-26T00:12:51;100404.06;;;22.77;nan
62800;BME280;48842;51.046;13.796;2023-06-26T00:15:16;100395.25;;;22.75;nan
62800;BME280;48842;51.046;13.796;2023-06-26T00:17:41;100394.44;;;22.73;nan
62800;BME280;48842;51.046;13.796;2023-06-26T00:20:07;100398.06;;;22.72;nan
62800;BME280;48842;51.046;13.796;2023-06-26T00:22:33;100396.56;;;22.66;nan
62800;BME280;48842;51.046;13.796;2023-06-26T00:24:58;100389.53;;;22.64;nan
62800;BME280;48842;51.046;13.796;2023-06-26T00:27:24;100394.09;;;22.62;nan
62800;BME280;48842;51.046;13.796;2023-06-26T00:29:49;100387.00;;;22.61;nan
62800;BME280;48842;51.046;13.796;2023-06-26T00:32:14;100387.00;;;22.61;nan
62800;BME280;48842;51.046;13.796;2023-06-26T00:34:39;100383.53;;;22.59;nan
62800;BME280;48842;51.046;13.796;2023-06-26T00:37:05;100379.16;;;22.58;nan
62800;BME280;48842;51.046;13.796;2023-06-26T00:39:30;100386.41;;;22.54;nan
62800;BME280;48842;51.046;13.796;2023-06-26T00:41:55;100394.50;;;22.53;nan
62800;BME280;48842;51.046;13.796;2023-06-26T00:44:20;100387.44;;;22.52;nan
62800;BME280;48842;51.046;13.796;2023-06-26T00:46:46;100379.47;;;22.50;nan
62800;BME280;48842;51.046;13.796;2023-06-26T00:49:12;100381.41;;;22.46;nan
62800;BME280;48842;51.046;13.796;2023-06-26T00:51:37;100372.69;;;22.43;nan
62800;BME280;48842;51.046;13.796;2023-06-26T00:54:03;100377.16;;;22.42;nan
62800;BME280;48842;51.046;13.796;2023-06-26T00:56:30;100379.03;;;22.40;nan
62800;BME280;48842;51.046;13.796;2023-06-26T00:58:56;100373.75;;;22.39;nan
62800;BME280;48842;51.046;13.796;2023-06-26T01:01:21;100373.75;;;22.39;nan
62800;BME280;48842;51.046;13.796;2023-06-26T01:03:50;100377.34;;;22.38;nan
62800;BME280;48842;51.046;13.796;2023-06-26T01:06:17;100381.03;;;22.35;nan
62800;BME280;48842;51.046;13.796;2023-06-26T01:08:43;100378.50;;;22.32;nan
62800;BME280;48842;51.046;13.796;2023-06-26T01:11:10;100385.63;;;22.31;nan
62800;BME280;48842;51.046;13.796;2023-06-26T01:13:36;100372.47;;;22.27;nan
62800;BME280;48842;51.046;13.796;2023-06-26T01:16:01;100370.88;;;22.23;nan
62800;BME280;48842;51.046;13.796;2023-06-26T01:18:27;100369.13;;;22.22;nan
62800;BME280;48842;51.046;13.796;2023-06-26T01:20:53;100356.84;;;22.18;nan
62800;BME280;48842;51.046;13.796;2023-06-26T01:23:37;100363.31;;;22.12;nan
62800;BME280;48842;51.046;13.796;2023-06-26T01:26:19;100356.41;;;22.08;nan
62800;BME280;48842;51.046;13.796;2023-06-26T01:28:45;100358.25;;;22.06;nan
62800;BME280;48842;51.046;13.796;2023-06-26T01:31:11;100362.75;;;22.05;nan
62800;BME280;48842;51.046;13.796;2023-06-26T01:33:38;100360.16;;;22.04;nan
62800;BME280;48842;51.046;13.796;2023-06-26T01:36:04;100362.88;;;22.02;nan
62800;BME280;48842;51.046;13.796;2023-06-26T01:38:29;100364.66;;;22.02;nan
62800;BME280;48842;51.046;13.796;2023-06-26T01:40:55;100354.88;;;22.02;nan
62800;BME280;48842;51.046;13.796;2023-06-26T01:44:01;100347.78;;;22.01;nan
62800;BME280;48842;51.046;13.796;2023-06-26T01:49:39;100346.47;;;21.91;nan
62800;BME280;48842;51.046;13.796;2023-06-26T01:52:08;100347.38;;;21.90;nan
62800;BME280;48842;51.046;13.796;2023-06-26T01:54:41;100343.94;;;21.88;nan
62800;BME280;48842;51.046;13.796;2023-06-26T01:57:08;100344.06;;;21.85;nan
62800;BME280;48842;51.046;13.796;2023-06-26T01:59:34;100334.47;;;21.81;nan
62800;BME280;48842;51.046;13.796;2023-06-26T02:02:01;100338.13;;;21.78;nan
62800;BME280;48842;51.046;13.796;2023-06-26T02:04:26;100335.50;;;21.76;nan
62800;BME280;48842;51.046;13.796;2023-06-26T02:06:51;100334.66;;;21.76;nan
62800;BME280;48842;51.046;13.796;2023-06-26T02:09:16;100336.50;;;21.74;nan
62800;BME280;48842;51.046;13.796;2023-06-26T02:11:42;100330.31;;;21.73;nan
62800;BME280;48842;51.046;13.796;2023-06-26T02:14:07;100335.66;;;21.73;nan
62800;BME280;48842;51.046;13.796;2023-06-26T02:16:34;100330.31;;;21.73;nan
62800;BME280;48842;51.046;13.796;2023-06-26T02:18:59;100332.19;;;21.71;nan
62800;BME280;48842;51.046;13.796;2023-06-26T02:21:24;100328.78;;;21.68;nan
62800;BME280;48842;51.046;13.796;2023-06-26T02:23:50;100332.44;;;21.65;nan
62800;BME280;48842;51.046;13.796;2023-06-26T02:26:15;100342.31;;;21.63;nan
62800;BME280;48842;51.046;13.796;2023-06-26T02:28:40;100330.94;;;21.58;nan
62800;BME280;48842;51.046;13.796;2023-06-26T02:31:05;100327.44;;;21.57;nan
62800;BME280;48842;51.046;13.796;2023-06-26T02:33:31;100339.91;;;21.57;nan
62800;BME280;48842;51.046;13.796;2023-06-26T02:35:57;100334.63;;;21.55;nan
62800;BME280;48842;51.046;13.796;2023-06-26T02:38:22;100323.22;;;21.52;nan
62800;BME280;48842;51.046;13.796;2023-06-26T02:40:47;100326.81;;;21.51;nan
62800;BME280;48842;51.046;13.796;2023-06-26T02:43:12;100317.97;;;21.49;nan
62800;BME280;48842;51.046;13.796;2023-06-26T02:45:38;100318.91;;;21.48;nan
62800;BME280;48842;51.046;13.796;2023-06-26T02:48:03;100318.91;;;21.48;nan
62800;BME280;48842;51.046;13.796;2023-06-26T02:50:28;100325.19;;;21.47;nan
62800;BME280;48842;51.046;13.796;2023-06-26T02:52:54;100319.94;;;21.45;nan
62800;BME280;48842;51.046;13.796;2023-06-26T02:55:19;100319.88;;;21.47;nan
62800;BME280;48842;51.046;13.796;2023-06-26T02:57:45;100320.78;;;21.45;nan
62800;BME280;48842;51.046;13.796;2023-06-26T03:00:11;100319.03;;;21.44;nan
62800;BME280;48842;51.046;13.796;2023-06-26T03:02:37;100327.09;;;21.43;nan
62800;BME280;48842;51.046;13.796;2023-06-26T03:05:02;100320.91;;;21.42;nan
62800;BME280;48842;51.046;13.796;2023-06-26T03:07:29;100319.16;;;21.41;nan
62800;BME280;48842;51.046;13.796;2023-06-26T03:09:54;100321.03;;;21.39;nan
62800;BME280;48842;51.046;13.796;2023-06-26T03:12:19;100317.56;;;21.37;nan
62800;BME280;48842;51.046;13.796;2023-06-26T03:14:44;100314.09;;;21.35;nan
62800;BME280;48842;51.046;13.796;2023-06-26T03:17:10;100313.19;;;21.36;nan
62800;BME280;48842;51.046;13.796;2023-06-26T03:19:35;100314.97;;;21.36;nan
62800;BME280;48842;51.046;13.796;2023-06-26T03:22:00;100320.34;;;21.34;nan
62800;BME280;48842;51.046;13.796;2023-06-26T03:24:25;100321.28;;;21.33;nan
62800;BME280;48842;51.046;13.796;2023-06-26T03:26:50;100320.56;;;21.30;nan
62800;BME280;48842;51.046;13.796;2023-06-26T03:29:16;100318.75;;;21.30;nan
62800;BME280;48842;51.046;13.796;2023-06-26T03:31:42;100321.41;;;21.30;nan
62800;BME280;48842;51.046;13.796;2023-06-26T03:34:08;100319.69;;;21.29;nan
62800;BME280;48842;51.046;13.796;2023-06-26T03:36:34;100317.81;;;21.31;nan
62800;BME280;48842;51.046;13.796;2023-06-26T03:39:00;100323.09;;;21.33;nan
62800;BME280;48842;51.046;13.796;2023-06-26T03:41:26;100314.09;;;21.35;nan
62800;BME280;48842;51.046;13.796;2023-06-26T03:43:51;100315.88;;;21.35;nan
62800;BME280;48842;51.046;13.796;2023-06-26T03:46:16;100311.44;;;21.35;nan
62800;BME280;48842;51.046;13.796;2023-06-26T03:48:42;100313.19;;;21.36;nan
62800;BME280;48842;51.046;13.796;2023-06-26T03:51:07;100308.72;;;21.37;nan
62800;BME280;48842;51.046;13.796;2023-06-26T03:53:33;100308.63;;;21.38;nan
62800;BME280;48842;51.046;13.796;2023-06-26T03:55:58;100304.16;;;21.39;nan
62800;BME280;48842;51.046;13.796;2023-06-26T03:58:23;100297.00;;;21.41;nan
62800;BME280;48842;51.046;13.796;2023-06-26T04:00:50;100294.25;;;21.42;nan
62800;BME280;48842;51.046;13.796;2023-06-26T04:03:15;100295.97;;;21.43;nan
62800;BME280;48842;51.046;13.796;2023-06-26T04:05:40;100291.47;;;21.45;nan
62800;BME280;48842;51.046;13.796;2023-06-26T04:08:06;100293.06;;;21.50;nan
62800;BME280;48842;51.046;13.796;2023-06-26T04:10:31;100299.22;;;21.52;nan
62800;BME280;48842;51.046;13.796;2023-06-26T04:12:56;100292.06;;;21.54;nan
62800;BME280;48842;51.046;13.796;2023-06-26T04:15:21;100289.38;;;21.54;nan
62800;BME280;48842;51.046;13.796;2023-06-26T04:17:47;100289.31;;;21.55;nan
62800;BME280;48842;51.046;13.796;2023-06-26T04:20:12;100287.44;;;21.57;nan
62800;BME280;48842;51.046;13.796;2023-06-26T04:22:38;100282.97;;;21.58;nan
62800;BME280;48842;51.046;13.796;2023-06-26T04:25:03;100289.13;;;21.60;nan
62800;BME280;48842;51.046;13.796;2023-06-26T04:27:29;100282.81;;;21.61;nan
62800;BME280;48842;51.046;13.796;2023-06-26T04:29:55;100285.38;;;21.64;nan
62800;BME280;48842;51.046;13.796;2023-06-26T04:32:20;100287.03;;;21.67;nan
62800;BME280;48842;51.046;13.796;2023-06-26T04:34:45;100282.44;;;21.70;nan
62800;BME280;48842;51.046;13.796;2023-06-26T04:37:12;100282.31;;;21.73;nan
62800;BME280;48842;51.046;13.796;2023-06-26T04:39:41;100285.69;;;21.77;nan
62800;BME280;48842;51.046;13.796;2023-06-26T04:42:06;100282.03;;;21.79;nan
62800;BME280;48842;51.046;13.796;2023-06-26T04:44:32;100289.91;;;21.83;nan
62800;BME280;48842;51.046;13.796;2023-06-26T04:46:57;100287.09;;;21.86;nan
62800;BME280;48842;51.046;13.796;2023-06-26T04:49:23;100286.97;;;21.89;nan
62800;BME280;48842;51.046;13.796;2023-06-26T04:51:48;100280.63;;;21.91;nan
62800;BME280;48842;51.046;13.796;2023-06-26T04:54:13;100276.03;;;21.95;nan
62800;BME280;48842;51.046;13.796;2023-06-26T04:56:39;100275.91;;;21.98;nan
62800;BME280;48842;51.046;13.796;2023-06-26T04:59:05;100273.03;;;22.03;nan
62800;BME280;48842;51.046;13.796;2023-06-26T05:01:30;100277.28;;;22.07;nan
62800;BME280;48842;51.046;13.796;2023-06-26T05:03:57;100271.03;;;22.08;nan
62800;BME280;48842;51.046;13.796;2023-06-26T05:06:22;100265.56;;;22.11;nan
62800;BME280;48842;51.046;13.796;2023-06-26T05:08:48;100270.69;;;22.16;nan
62800;BME280;48842;51.046;13.796;2023-06-26T05:11:13;100270.47;;;22.20;nan
62800;BME280;48842;51.046;13.796;2023-06-26T05:13:38;100265.84;;;22.24;nan
62800;BME280;48842;51.046;13.796;2023-06-26T05:16:05;100265.56;;;22.30;nan
62800;BME280;48842;51.046;13.796;2023-06-26T05:18:30;100261.88;;;22.34;nan
62800;BME280;48842;51.046;13.796;2023-06-26T05:20:56;100260.75;;;22.38;nan
62800;BME280;48842;51.046;13.796;2023-06-26T05:23:22;100261.56;;;22.40;nan
62800;BME280;48842;51.046;13.796;2023-06-26T05:25:50;100263.16;;;22.44;nan
62800;BME280;48842;51.046;13.796;2023-06-26T05:28:16;100256.66;;;22.50;nan
62800;BME280;48842;51.046;13.796;2023-06-26T05:30:41;100255.50;;;22.56;nan
62800;BME280;48842;51.046;13.796;2023-06-26T05:33:09;100253.41;;;22.62;nan
62800;BME280;48842;51.046;13.796;2023-06-26T05:35:36;100250.44;;;22.69;nan
62800;BME280;48842;51.046;13.796;2023-06-26T05:38:01;100251.03;;;22.75;nan
62800;BME280;48842;51.046;13.796;2023-06-26T05:40:26;100246.16;;;22.83;nan
62800;BME280;48842;51.046;13.796;2023-06-26T05:42:52;100239.56;;;22.91;nan
62800;BME280;48842;51.046;13.796;2023-06-26T05:45:17;100239.34;;;22.95;nan
62800;BME280;48842;51.046;13.796;2023-06-26T05:47:42;100237.31;;;23.00;nan
62800;BME280;48842;51.046;13.796;2023-06-26T05:50:09;100235.22;;;23.07;nan
62800;BME280;48842;51.046;13.796;2023-06-26T05:52:35;100227.88;;;23.12;nan
62800;BME280;48842;51.046;13.796;2023-06-26T05:55:01;100223.94;;;23.20;nan
62800;BME280;48842;51.046;13.796;2023-06-26T05:57:28;100233.31;;;23.28;nan
62800;BME280;48842;51.046;13.796;2023-06-26T05:59:54;100224.09;;;23.34;nan
62800;BME280;48842;51.046;13.796;2023-06-26T06:02:19;100228.19;;;23.41;nan
62800;BME280;48842;51.046;13.796;2023-06-26T06:04:44;100225.97;;;23.49;nan
62800;BME280;48842;51.046;13.796;2023-06-26T06:07:10;100230.13;;;23.55;nan
62800;BME280;48842;51.046;13.796;2023-06-26T06:09:35;100222.69;;;23.62;nan
62800;BME280;48842;51.046;13.796;2023-06-26T06:12:00;100223.28;;;23.67;nan
62800;BME280;48842;51.046;13.796;2023-06-26T06:14:27;100216.66;;;23.74;nan
62800;BME280;48842;51.046;13.796;2023-06-26T06:16:53;100218.94;;;23.82;nan
62800;BME280;48842;51.046;13.796;2023-06-26T06:19:18;100221.25;;;23.90;nan
62800;BME280;48842;51.046;13.796;2023-06-26T06:21:43;100218.22;;;23.96;nan
62800;BME280;48842;51.046;13.796;2023-06-26T06:24:08;100217.88;;;24.02;nan
62800;BME280;48842;51.046;13.796;2023-06-26T06:26:35;100215.66;;;24.10;nan
62800;BME280;48842;51.046;13.796;2023-06-26T06:29:00;100208.09;;;24.18;nan
62800;BME280;48842;51.046;13.796;2023-06-26T06:31:25;100201.53;;;24.24;nan
62800;BME280;48842;51.046;13.796;2023-06-26T06:33:53;100202.94;;;24.31;nan
62800;BME280;48842;51.046;13.796;2023-06-26T06:36:18;100198.88;;;24.40;nan
62800;BME280;48842;51.046;13.796;2023-06-26T06:38:43;100194.88;;;24.47;nan
62800;BME280;48842;51.046;13.796;2023-06-26T06:41:09;100193.56;;;24.54;nan
62800;BME280;48842;51.046;13.796;2023-06-26T06:43:34;100202.25;;;24.60;nan
62800;BME280;48842;51.046;13.796;2023-06-26T06:45:59;100196.56;;;24.66;nan
62800;BME280;48842;51.046;13.796;2023-06-26T06:48:25;100201.53;;;24.72;nan
62800;BME280;48842;51.046;13.796;2023-06-26T06:50:50;100187.91;;;24.77;nan
62800;BME280;48842;51.046;13.796;2023-06-26T06:53:15;100185.72;;;24.83;nan
62800;BME280;48842;51.046;13.796;2023-06-26T06:55:40;100190.72;;;24.89;nan
62800;BME280;48842;51.046;13.796;2023-06-26T06:58:06;100184.22;;;24.94;nan
62800;BME280;48842;51.046;13.796;2023-06-26T07:00:31;100183.84;;;25.00;nan
62800;BME280;48842;51.046;13.796;2023-06-26T07:02:56;100185.22;;;25.07;nan
62800;BME280;48842;51.046;13.796;2023-06-26T07:05:22;100184.00;;;25.13;nan
62800;BME280;48842;51.046;13.796;2023-06-26T07:07:47;100181.84;;;25.19;nan
62800;BME280;48842;51.046;13.796;2023-06-26T07:10:13;100177.94;;;25.25;nan
62800;BME280;48842;51.046;13.796;2023-06-26T07:12:38;100178.50;;;25.30;nan
62800;BME280;48842;51.046;13.796;2023-06-26T07:15:05;100176.34;;;25.37;nan
62800;BME280;48842;51.046;13.796;2023-06-26T07:17:31;100169.84;;;25.41;nan
62800;BME280;48842;51.046;13.796;2023-06-26T07:19:56;100173.09;;;25.46;nan
62800;BME280;48842;51.046;13.796;2023-06-26T07:22:22;100171.97;;;25.50;nan
62800;BME280;48842;51.046;13.796;2023-06-26T07:24:48;100175.25;;;25.55;nan
62800;BME280;48842;51.046;13.796;2023-06-26T07:27:16;100171.38;;;25.59;nan
62800;BME280;48842;51.046;13.796;2023-06-26T07:29:43;100170.16;;;25.65;nan
62800;BME280;48842;51.046;13.796;2023-06-26T07:32:08;100168.16;;;25.69;nan
62800;BME280;48842;51.046;13.796;2023-06-26T07:34:33;100165.19;;;25.73;nan
62800;BME280;48842;51.046;13.796;2023-06-26T07:36:59;100165.63;;;25.80;nan
62800;BME280;48842;51.046;13.796;2023-06-26T07:39:24;100161.72;;;25.86;nan
62800;BME280;48842;51.046;13.796;2023-06-26T07:41:49;100161.41;;;25.90;nan
62800;BME280;48842;51.046;13.796;2023-06-26T07:44:14;100157.47;;;25.96;nan
62800;BME280;48842;51.046;13.796;2023-06-26T07:46:40;100162.63;;;26.01;nan
62800;BME280;48842;51.046;13.796;2023-06-26T07:49:05;100159.72;;;26.04;nan
62800;BME280;48842;51.046;13.796;2023-06-26T07:51:30;100152.44;;;26.06;nan
62800;BME280;48842;51.046;13.796;2023-06-26T07:53:55;100154.91;;;26.09;nan
62800;BME280;48842;51.046;13.796;2023-06-26T07:56:21;100161.63;;;26.16;nan
62800;BME280;48842;51.046;13.796;2023-06-26T07:58:46;100160.47;;;26.20;nan
62800;BME280;48842;51.046;13.796;2023-06-26T08:01:11;100151.25;;;26.24;nan
62800;BME280;48842;51.046;13.796;2023-06-26T08:03:36;100148.25;;;26.29;nan
62800;BME280;48842;51.046;13.796;2023-06-26T08:06:02;100149.69;;;26.35;nan
62800;BME280;48842;51.046;13.796;2023-06-26T08:08:28;100150.25;;;26.40;nan
62800;BME280;48842;51.046;13.796;2023-06-26T08:10:53;100147.19;;;26.46;nan
62800;BME280;48842;51.046;13.796;2023-06-26T08:13:18;100146.75;;;26.52;nan
62800;BME280;48842;51.046;13.796;2023-06-26T08:15:44;100146.56;;;26.55;nan
62800;BME280;48842;51.046;13.796;2023-06-26T08:18:09;100142.59;;;26.61;nan
62800;BME280;48842;51.046;13.796;2023-06-26T08:20:34;100141.44;;;26.65;nan
62800;BME280;48842;51.046;13.796;2023-06-26T08:23:02;100129.53;;;26.69;nan
62800;BME280;48842;51.046;13.796;2023-06-26T08:25:27;100134.63;;;26.74;nan
62800;BME280;48842;51.046;13.796;2023-06-26T08:27:52;100128.03;;;26.78;nan
62800;BME280;48842;51.046;13.796;2023-06-26T08:30:19;100135.63;;;26.86;nan
62800;BME280;48842;51.046;13.796;2023-06-26T08:32:44;100128.97;;;26.91;nan
62800;BME280;48842;51.046;13.796;2023-06-26T08:35:09;100125.84;;;26.97;nan
62800;BME280;48842;51.046;13.796;2023-06-26T08:37:35;100128.22;;;27.02;nan
62800;BME280;48842;51.046;13.796;2023-06-26T08:40:00;100127.91;;;27.07;nan
62800;BME280;48842;51.046;13.796;2023-06-26T08:42:26;100120.41;;;27.12;nan
62800;BME280;48842;51.046;13.796;2023-06-26T08:44:51;100115.31;;;27.20;nan
62800;BME280;48842;51.046;13.796;2023-06-26T08:47:17;100119.53;;;27.24;nan
62800;BME280;48842;51.046;13.796;2023-06-26T08:49:55;100113.19;;;27.25;nan
62800;BME280;48842;51.046;13.796;2023-06-26T08:52:27;100113.81;;;27.29;nan
62800;BME280;48842;51.046;13.796;2023-06-26T08:54:58;100113.53;;;27.33;nan
62800;BME280;48842;51.046;13.796;2023-06-26T08:57:25;100104.94;;;27.41;nan
62800;BME280;48842;51.046;13.796;2023-06-26T08:59:51;100109.78;;;27.49;nan
62800;BME280;48842;51.046;13.796;2023-06-26T09:02:17;100113.13;;;27.52;nan
62800;BME280;48842;51.046;13.796;2023-06-26T09:04:42;100102.25;;;27.54;nan
62800;BME280;48842;51.046;13.796;2023-06-26T09:07:07;100103.84;;;27.57;nan
62800;BME280;48842;51.046;13.796;2023-06-26T09:09:33;100099.97;;;27.61;nan
62800;BME280;48842;51.046;13.796;2023-06-26T09:11:58;100098.78;;;27.65;nan
62800;BME280;48842;51.046;13.796;2023-06-26T09:14:24;100095.00;;;27.67;nan
62800;BME280;48842;51.046;13.796;2023-06-26T09:16:49;100089.41;;;27.71;nan
62800;BME280;48842;51.046;13.796;2023-06-26T09:19:15;100088.94;;;27.77;nan
62800;BME280;48842;51.046;13.796;2023-06-26T09:21:42;100084.22;;;27.80;nan
62800;BME280;48842;51.046;13.796;2023-06-26T09:24:08;100087.41;;;27.85;nan
62800;BME280;48842;51.046;13.796;2023-06-26T09:26:38;100082.22;;;27.95;nan
62800;BME280;48842;51.046;13.796;2023-06-26T09:29:04;100084.03;;;28.08;nan
62800;BME280;48842;51.046;13.796;2023-06-26T09:31:30;100082.16;;;28.21;nan
62800;BME280;48842;51.046;13.796;2023-06-26T09:33:58;100082.56;;;28.28;nan
62800;BME280;48842;51.046;13.796;2023-06-26T09:36:28;100083.19;;;28.31;nan
62800;BME280;48842;51.046;13.796;2023-06-26T09:38:54;100078.34;;;28.36;nan
62800;BME280;48842;51.046;13.796;2023-06-26T09:41:20;100076.50;;;28.37;nan
62800;BME280;48842;51.046;13.796;2023-06-26T09:43:46;100071.75;;;28.41;nan
62800;BME280;48842;51.046;13.796;2023-06-26T09:46:24;100079.47;;;28.45;nan
62800;BME280;48842;51.046;13.796;2023-06-26T09:49:01;100063.91;;;28.49;nan
62800;BME280;48842;51.046;13.796;2023-06-26T09:51:29;100069.72;;;28.55;nan
62800;BME280;48842;51.046;13.796;2023-06-26T09:53:54;100068.41;;;28.61;nan
62800;BME280;48842;51.046;13.796;2023-06-26T09:56:19;100071.63;;;28.66;nan
62800;BME280;48842;51.046;13.796;2023-06-26T09:58:47;100063.81;;;28.75;nan
62800;BME280;48842;51.046;13.796;2023-06-26T10:01:12;100060.88;;;28.78;nan
62800;BME280;48842;51.046;13.796;2023-06-26T10:03:37;100062.50;;;28.92;nan
62800;BME280;48842;51.046;13.796;2023-06-26T10:06:04;100050.75;;;29.04;nan
62800;BME280;48842;51.046;13.796;2023-06-26T10:08:30;100055.31;;;29.15;nan
62800;BME280;48842;51.046;13.796;2023-06-26T10:10:57;100047.13;;;29.28;nan
62800;BME280;48842;51.046;13.796;2023-06-26T10:13:26;100045.06;;;29.31;nan
62800;BME280;48842;51.046;13.796;2023-06-26T10:15:53;100040.50;;;29.32;nan
62800;BME280;48842;51.046;13.796;2023-06-26T10:18:21;100037.19;;;29.39;nan
62800;BME280;48842;51.046;13.796;2023-06-26T10:20:49;100039.88;;;29.51;nan
62800;BME280;48842;51.046;13.796;2023-06-26T10:23:18;100043.34;;;29.53;nan
62800;BME280;48842;51.046;13.796;2023-06-26T10:25:45;100044.06;;;29.66;nan
62800;BME280;48842;51.046;13.796;2023-06-26T10:28:13;100041.22;;;29.79;nan
62800;BME280;48842;51.046;13.796;2023-06-26T10:30:40;100035.94;;;29.89;nan
62800;BME280;48842;51.046;13.796;2023-06-26T10:33:07;100033.72;;;29.94;nan
62800;BME280;48842;51.046;13.796;2023-06-26T10:35:34;100034.31;;;29.98;nan
62800;BME280;48842;51.046;13.796;2023-06-26T10:38:05;100033.06;;;30.02;nan
62800;BME280;48842;51.046;13.796;2023-06-26T10:40:47;100049.28;;;30.02;nan
62800;BME280;48842;51.046;13.796;2023-06-26T10:43:17;100030.34;;;30.13;nan
62800;BME280;48842;51.046;13.796;2023-06-26T10:45:47;100030.19;;;30.26;nan
62800;BME280;48842;51.046;13.796;2023-06-26T10:48:17;100029.41;;;30.35;nan
62800;BME280;48842;51.046;13.796;2023-06-26T10:50:46;100021.53;;;30.43;nan
62800;BME280;48842;51.046;13.796;2023-06-26T10:56:03;100022.38;;;30.44;nan
62800;BME280;48842;51.046;13.796;2023-06-26T11:01:19;100021.72;;;30.52;nan
62800;BME280;48842;51.046;13.796;2023-06-26T11:03:49;100021.94;;;30.60;nan
62800;BME280;48842;51.046;13.796;2023-06-26T11:06:27;100013.56;;;30.63;nan
62800;BME280;48842;51.046;13.796;2023-06-26T11:08:53;100017.72;;;30.67;nan
62800;BME280;48842;51.046;13.796;2023-06-26T11:11:20;100012.44;;;30.66;nan
62800;BME280;48842;51.046;13.796;2023-06-26T11:13:47;100007.13;;;30.75;nan
62800;BME280;48842;51.046;13.796;2023-06-26T11:16:13;100006.44;;;30.83;nan
62800;BME280;48842;51.046;13.796;2023-06-26T11:18:39;100011.72;;;30.85;nan
62800;BME280;48842;51.046;13.796;2023-06-26T11:21:08;100004.44;;;30.85;nan
62800;BME280;48842;51.046;13.796;2023-06-26T11:23:37;100003.91;;;30.91;nan
62800;BME280;48842;51.046;13.796;2023-06-26T11:26:29;100009.66;;;30.98;nan
62800;BME280;48842;51.046;13.796;2023-06-26T11:28:55;100003.44;;;31.07;nan
62800;BME280;48842;51.046;13.796;2023-06-26T11:31:32;100001.63;;;31.18;nan
62800;BME280;48842;51.046;13.796;2023-06-26T11:33:59;99985.88;;;31.23;nan
62800;BME280;48842;51.046;13.796;2023-06-26T11:36:26;99986.72;;;31.23;nan
62800;BME280;48842;51.046;13.796;2023-06-26T11:38:56;99993.28;;;31.21;nan
62800;BME280;48842;51.046;13.796;2023-06-26T11:41:23;99981.56;;;31.20;nan
62800;BME280;48842;51.046;13.796;2023-06-26T11:43:49;99982.13;;;31.14;nan
62800;BME280;48842;51.046;13.796;2023-06-26T11:46:16;99975.59;;;31.26;nan
62800;BME280;48842;51.046;13.796;2023-06-26T11:48:42;99976.25;;;31.40;nan
62800;BME280;48842;51.046;13.796;2023-06-26T11:51:07;99970.56;;;31.53;nan
62800;BME280;48842;51.046;13.796;2023-06-26T11:53:39;99975.19;;;31.62;nan
62800;BME280;48842;51.046;13.796;2023-06-26T11:56:15;99976.03;;;31.62;nan
62800;BME280;48842;51.046;13.796;2023-06-26T11:59:01;99976.91;;;31.63;nan
62800;BME280;48842;51.046;13.796;2023-06-26T12:01:32;99986.56;;;31.56;nan
62800;BME280;48842;51.046;13.796;2023-06-26T12:04:03;99970.31;;;31.56;nan
62800;BME280;48842;51.046;13.796;2023-06-26T12:06:31;99968.47;;;31.56;nan
62800;BME280;48842;51.046;13.796;2023-06-26T12:08:59;99967.78;;;31.64;nan
62800;BME280;48842;51.046;13.796;2023-06-26T12:11:26;99973.91;;;31.66;nan
62800;BME280;48842;51.046;13.796;2023-06-26T12:13:52;99962.94;;;31.67;nan
62800;BME280;48842;51.046;13.796;2023-06-26T12:16:18;99955.97;;;31.75;nan
62800;BME280;48842;51.046;13.796;2023-06-26T12:18:44;99958.94;;;31.72;nan
62800;BME280;48842;51.046;13.796;2023-06-26T12:21:48;99965.50;;;31.79;nan
62800;BME280;48842;51.046;13.796;2023-06-26T12:24:15;99954.69;;;31.89;nan
62800;BME280;48842;51.046;13.796;2023-06-26T12:26:43;99946.41;;;32.00;nan
62800;BME280;48842;51.046;13.796;2023-06-26T12:29:14;99941.59;;;32.13;nan
62800;BME280;48842;51.046;13.796;2023-06-26T12:31:43;99937.03;;;32.24;nan
62800;BME280;48842;51.046;13.796;2023-06-26T12:34:11;99939.72;;;32.24;nan
62800;BME280;48842;51.046;13.796;2023-06-26T12:36:47;99937.28;;;32.40;nan
62800;BME280;48842;51.046;13.796;2023-06-26T12:39:18;99940.13;;;32.58;nan
62800;BME280;48842;51.046;13.796;2023-06-26T12:41:52;99934.94;;;32.65;nan
62800;BME280;48842;51.046;13.796;2023-06-26T12:44:25;99935.81;;;32.65;nan
62800;BME280;48842;51.046;13.796;2023-06-26T12:46:58;99930.28;;;32.67;nan
62800;BME280;48842;51.046;13.796;2023-06-26T12:49:40;99919.34;;;32.77;nan
62800;BME280;48842;51.046;13.796;2023-06-26T12:52:08;99920.75;;;32.91;nan
62800;BME280;48842;51.046;13.796;2023-06-26T12:54:34;99924.72;;;32.96;nan
62800;BME280;48842;51.046;13.796;2023-06-26T12:57:00;99916.13;;;33.01;nan
62800;BME280;48842;51.046;13.796;2023-06-26T12:59:25;99916.31;;;33.17;nan
62800;BME280;48842;51.046;13.796;2023-06-26T13:01:50;99914.41;;;33.37;nan
62800;BME280;48842;51.046;13.796;2023-06-26T13:04:16;99904.41;;;33.56;nan
62800;BME280;48842;51.046;13.796;2023-06-26T13:06:42;99904.13;;;33.77;nan
62800;BME280;48842;51.046;13.796;2023-06-26T13:09:07;99906.16;;;33.93;nan